Time;durP1;ratioP1;P1;durP2;ratioP2;P2;SDS_P1;SDS_P2;PMS_P1;PMS_P2;Temp;Humidity;BMP_temperature;BMP_pressure;BME280_temperature;BME280_humidity;BME280_pressure;Samples;Min_cycle;Max_cycle;Signal;HPM_P1;HPM_P2
2021/08/26 00:07:20;;;;;;;;;;;;;;;;;;4985758;28;19936;-92
2021/08/26 00:09:49;;;;;;;;;;;;;;;;;;5000927;28;19925;-92
2021/08/26 00:12:17;;;;;;;;;;;;;;;;;;4990271;28;20393;-89
2021/08/26 00:14:46;;;;;;;;;;;;;;;;;;4997952;28;20323;-90
2021/08/26 00:17:15;;;;;;;;;;;;;;;;;;4996755;28;19926;-90
2021/08/26 00:19:43;;;;;;;;;;;;;;;;;;4997123;28;19925;-90
2021/08/26 00:22:13;;;;;;;;;;;;;;;;;;4997942;28;19929;-90
2021/08/26 00:24:41;;;;;;;;;;;;;;;;;;4981687;28;19925;-90
2021/08/26 00:27:09;;;;;;;;;;;;;;;;;;4997901;28;19932;-90
2021/08/26 00:29:37;;;;;;;;;;;;;;;;;;4981976;28;20433;-89
2021/08/26 00:32:08;;;;;;;;;;;;;;;;;;4981131;28;19926;-90
2021/08/26 00:34:36;;;;;;;;;;;;;;;;;;4981433;28;20389;-88
2021/08/26 00:37:04;;;;;;;;;;;;;;;;;;4981066;28;19933;-91
2021/08/26 00:39:33;;;;;;;;;;;;;;;;;;4996869;28;19929;-93
2021/08/26 00:42:01;;;;;;;;;;;;;;;;;;4981449;28;19925;-92
2021/08/26 00:44:29;;;;;;;;;;;;;;;;;;4997565;28;19925;-92
2021/08/26 00:46:57;;;;;;;;;;;;;;;;;;4997343;28;19926;-92
2021/08/26 00:49:30;;;;;;;;;;;;;;;;;;4997970;28;19926;-90
2021/08/26 00:51:58;;;;;;;;;;;;;;;;;;4980904;28;19926;-91
2021/08/26 00:54:28;;;;;;;;;;;;;;;;;;4997178;28;19933;-90
2021/08/26 00:56:57;;;;;;;;;;;;;;;;;;4981364;28;19926;-91
2021/08/26 00:59:26;;;;;;;;;;;;;;;;;;4981379;28;19933;-92
2021/08/26 01:01:56;;;;;;;;;;;;;;;;;;4982696;28;19926;-92
2021/08/26 01:04:26;;;;;;;;;;;;;;;;;;4982005;28;19925;-92
2021/08/26 01:06:58;;;;;;;;;;;;;;;;;;4981008;28;19925;-92
2021/08/26 01:09:27;;;;;;;;;;;;;;;;;;4992261;28;20341;-90
2021/08/26 01:11:56;;;;;;;;;;;;;;;;;;5000162;28;19925;-91
2021/08/26 01:14:24;;;;;;;;;;;;;;;;;;4999462;28;19932;-91
2021/08/26 01:16:52;;;;;;;;;;;;;;;;;;4999956;28;19925;-92
2021/08/26 01:19:20;;;;;;;;;;;;;;;;;;4999425;28;19940;-87
2021/08/26 01:21:48;;;;;;;;;;;;;;;;;;4999654;28;19952;-90
2021/08/26 01:24:18;;;;;;;;;;;;;;;;;;4999234;28;20400;-89
2021/08/26 01:26:49;;;;;;;;;;;;;;;;;;5000060;28;19925;-90
2021/08/26 01:29:18;;;;;;;;;;;;;;;;;;4999088;28;19925;-90
2021/08/26 01:31:47;;;;;;;;;;;;;;;;;;4999577;28;19925;-90
2021/08/26 01:34:15;;;;;;;;;;;;;;;;;;4999028;28;20316;-88
2021/08/26 01:36:44;;;;;;;;;;;;;;;;;;5015845;28;19925;-91
2021/08/26 01:39:15;;;;;;;;;;;;;;;;;;5015677;28;19925;-87
2021/08/26 01:41:44;;;;;;;;;;;;;;;;;;4999373;28;20320;-92
2021/08/26 01:44:15;;;;;;;;;;;;;;;;;;4999502;28;19925;-92
2021/08/26 01:46:44;;;;;;;;;;;;;;;;;;5015303;28;20120;-92
2021/08/26 01:49:12;;;;;;;;;;;;;;;;;;4999624;28;19932;-91
2021/08/26 01:51:41;;;;;;;;;;;;;;;;;;5015725;28;19925;-88
2021/08/26 01:54:10;;;;;;;;;;;;;;;;;;4999098;28;19932;-91
2021/08/26 01:56:38;;;;;;;;;;;;;;;;;;4999219;28;20396;-89
2021/08/26 01:59:06;;;;;;;;;;;;;;;;;;4999231;28;19925;-89
2021/08/26 02:01:36;;;;;;;;;;;;;;;;;;4999090;28;20312;-88
2021/08/26 02:04:04;;;;;;;;;;;;;;;;;;4998761;28;20316;-90
2021/08/26 02:06:33;;;;;;;;;;;;;;;;;;4999651;28;19925;-90
2021/08/26 02:09:01;;;;;;;;;;;;;;;;;;4999267;28;19925;-88
2021/08/26 02:11:29;;;;;;;;;;;;;;;;;;4999852;28;19925;-88
2021/08/26 02:13:57;;;;;;;;;;;;;;;;;;5015736;28;19925;-87
2021/08/26 02:16:26;;;;;;;;;;;;;;;;;;4999434;28;19932;-88
2021/08/26 02:18:56;;;;;;;;;;;;;;;;;;4999283;28;20312;-88
2021/08/26 02:21:27;;;;;;;;;;;;;;;;;;4998563;28;19931;-90
2021/08/26 02:23:56;;;;;;;;;;;;;;;;;;4998764;28;19925;-90
2021/08/26 02:26:24;;;;;;;;;;;;;;;;;;5015491;28;19928;-87
2021/08/26 02:28:52;;;;;;;;;;;;;;;;;;4998713;28;19925;-92
2021/08/26 02:31:20;;;;;;;;;;;;;;;;;;4999275;28;19932;-90
2021/08/26 02:33:49;;;;;;;;;;;;;;;;;;4998999;28;19925;-88
2021/08/26 02:36:18;;;;;;;;;;;;;;;;;;4999345;28;19925;-87
2021/08/26 02:38:47;;;;;;;;;;;;;;;;;;4999200;28;20408;-91
2021/08/26 02:41:15;;;;;;;;;;;;;;;;;;5000366;28;19929;-92
2021/08/26 02:43:43;;;;;;;;;;;;;;;;;;5003062;28;20381;-91
2021/08/26 02:46:11;;;;;;;;;;;;;;;;;;5004444;28;20000;-90
2021/08/26 02:48:40;;;;;;;;;;;;;;;;;;5003347;28;19925;-89
2021/08/26 02:51:08;;;;;;;;;;;;;;;;;;5003332;28;20381;-88
2021/08/26 02:53:38;;;;;;;;;;;;;;;;;;5003103;28;19925;-90
2021/08/26 02:56:06;;;;;;;;;;;;;;;;;;5003227;28;19932;-90
2021/08/26 02:58:34;;;;;;;;;;;;;;;;;;5002920;28;19933;-90
2021/08/26 03:01:03;;;;;;;;;;;;;;;;;;5002772;28;19925;-90
2021/08/26 03:03:31;;;;;;;;;;;;;;;;;;5001984;28;20123;-89
2021/08/26 03:06:00;;;;;;;;;;;;;;;;;;5003024;28;19925;-91
2021/08/26 03:08:28;;;;;;;;;;;;;;;;;;5003237;28;19925;-90
2021/08/26 03:10:58;;;;;;;;;;;;;;;;;;5002101;28;19945;-92
2021/08/26 03:13:26;;;;;;;;;;;;;;;;;;5003012;28;19925;-91
2021/08/26 03:15:57;;;;;;;;;;;;;;;;;;5002688;28;19925;-90
2021/08/26 03:18:25;;;;;;;;;;;;;;;;;;5002629;28;19929;-92
2021/08/26 03:20:53;;;;;;;;;;;;;;;;;;5002114;28;19925;-89
2021/08/26 03:23:22;;;;;;;;;;;;;;;;;;5001677;28;19925;-91
2021/08/26 03:25:50;;;;;;;;;;;;;;;;;;5002310;28;19926;-92
2021/08/26 03:28:20;;;;;;;;;;;;;;;;;;5002832;28;20408;-91
2021/08/26 03:30:49;;;;;;;;;;;;;;;;;;5001322;28;19936;-92
2021/08/26 03:33:17;;;;;;;;;;;;;;;;;;5001408;28;20399;-90
2021/08/26 03:35:48;;;;;;;;;;;;;;;;;;5001684;28;20412;-89
2021/08/26 03:38:17;;;;;;;;;;;;;;;;;;5001783;28;19925;-89
2021/08/26 03:40:45;;;;;;;;;;;;;;;;;;5004456;28;19939;-92
2021/08/26 03:43:13;;;;;;;;;;;;;;;;;;5017344;28;19936;-93
2021/08/26 03:45:43;;;;;;;;;;;;;;;;;;5026382;28;19909;-94
2021/08/26 03:48:12;;;;;;;;;;;;;;;;;;5026215;28;19913;-92
2021/08/26 03:50:40;;;;;;;;;;;;;;;;;;5026433;28;19913;-95
2021/08/26 03:53:08;;;;;;;;;;;;;;;;;;5023924;28;19936;-92
2021/08/26 03:55:36;;;;;;;;;;;;;;;;;;5037299;28;19921;-94
2021/08/26 03:58:05;;;;;;;;;;;;;;;;;;5020631;28;19925;-92
2021/08/26 04:00:33;;;;;;;;;;;;;;;;;;5002947;28;19932;-90
2021/08/26 04:03:03;;;;;;;;;;;;;;;;;;5004930;28;20293;-91
2021/08/26 04:05:31;;;;;;;;;;;;;;;;;;5007275;28;19936;-92
2021/08/26 04:07:59;;;;;;;;;;;;;;;;;;5009157;28;20393;-92
2021/08/26 04:10:28;;;;;;;;;;;;;;;;;;5021902;28;19925;-94
2021/08/26 04:12:56;;;;;;;;;;;;;;;;;;5025755;28;19921;-94
2021/08/26 04:15:24;;;;;;;;;;;;;;;;;;5025771;28;19932;-96
2021/08/26 04:17:53;;;;;;;;;;;;;;;;;;5026230;28;19910;-94
2021/08/26 04:20:22;;;;;;;;;;;;;;;;;;5013854;28;19925;-92
2021/08/26 04:22:51;;;;;;;;;;;;;;;;;;5001254;28;19932;-92
2021/08/26 04:25:19;;;;;;;;;;;;;;;;;;5001318;28;19933;-92
2021/08/26 04:27:47;;;;;;;;;;;;;;;;;;5000993;28;19925;-92
2021/08/26 04:30:17;;;;;;;;;;;;;;;;;;5000963;28;19929;-91
2021/08/26 04:32:45;;;;;;;;;;;;;;;;;;5000822;28;19925;-92
2021/08/26 04:35:13;;;;;;;;;;;;;;;;;;5001379;28;20373;-90
2021/08/26 04:37:43;;;;;;;;;;;;;;;;;;5000871;28;19932;-92
2021/08/26 04:40:11;;;;;;;;;;;;;;;;;;5000627;28;19925;-92
2021/08/26 04:42:40;;;;;;;;;;;;;;;;;;5000581;28;20372;-91
2021/08/26 04:45:09;;;;;;;;;;;;;;;;;;5000889;28;19930;-92
2021/08/26 04:47:37;;;;;;;;;;;;;;;;;;5000229;28;19940;-92
2021/08/26 04:50:06;;;;;;;;;;;;;;;;;;5000330;28;19932;-91
2021/08/26 04:52:35;;;;;;;;;;;;;;;;;;5000208;28;20424;-90
2021/08/26 04:55:05;;;;;;;;;;;;;;;;;;5000107;28;19932;-91
2021/08/26 04:57:34;;;;;;;;;;;;;;;;;;5000355;28;20001;-92
2021/08/26 05:00:02;;;;;;;;;;;;;;;;;;4999734;28;19948;-90
2021/08/26 05:02:30;;;;;;;;;;;;;;;;;;4999151;28;19925;-92
2021/08/26 05:04:59;;;;;;;;;;;;;;;;;;4999487;28;19937;-93
2021/08/26 05:07:27;;;;;;;;;;;;;;;;;;5000227;28;20412;-92
2021/08/26 05:09:56;;;;;;;;;;;;;;;;;;4999667;28;20289;-92
2021/08/26 05:12:25;;;;;;;;;;;;;;;;;;4999829;28;19932;-92
2021/08/26 05:14:53;;;;;;;;;;;;;;;;;;5000200;28;19932;-92
2021/08/26 05:17:22;;;;;;;;;;;;;;;;;;4999963;28;20415;-92
2021/08/26 05:19:50;;;;;;;;;;;;;;;;;;5000385;28;19932;-92
2021/08/26 05:22:18;;;;;;;;;;;;;;;;;;4999567;28;19929;-92
2021/08/26 05:24:47;;;;;;;;;;;;;;;;;;5021816;28;19913;-94
2021/08/26 05:27:15;;;;;;;;;;;;;;;;;;5039788;28;19929;-93
2021/08/26 05:29:46;;;;;;;;;;;;;;;;;;5019696;28;19913;-93
2021/08/26 05:32:14;;;;;;;;;;;;;;;;;;5016337;28;19920;-94
2021/08/26 05:34:42;;;;;;;;;;;;;;;;;;5017046;28;19924;-93
2021/08/26 05:37:11;;;;;;;;;;;;;;;;;;5037628;28;19913;-94
2021/08/26 05:39:39;;;;;;;;;;;;;;;;;;4980590;28;19926;-91
2021/08/26 05:42:11;;;;;;;;;;;;;;;;;;4996395;28;19932;-90
2021/08/26 05:47:56;;;;;;;;;;;;;;;;;;4998737;28;19926;-92
2021/08/26 05:50:25;;;;;;;;;;;;;;;;;;4996426;28;19933;-93
2021/08/26 05:52:54;;;;;;;;;;;;;;;;;;4977210;28;19925;-94
2021/08/26 05:55:22;;;;;;;;;;;;;;;;;;4992330;28;20439;-91
2021/08/26 05:57:50;;;;;;;;;;;;;;;;;;4993355;28;19933;-91
2021/08/26 06:00:19;;;;;;;;;;;;;;;;;;4984502;28;20286;-91
2021/08/26 06:02:48;;;;;;;;;;;;;;;;;;4996103;28;19925;-91
2021/08/26 06:05:18;;;;;;;;;;;;;;;;;;4996226;28;19929;-90
2021/08/26 06:07:47;;;;;;;;;;;;;;;;;;4996605;28;20308;-88
2021/08/26 06:10:15;;;;;;;;;;;;;;;;;;4998195;28;19925;-91
2021/08/26 06:12:44;;;;;;;;;;;;;;;;;;4998411;28;19925;-91
2021/08/26 06:15:12;;;;;;;;;;;;;;;;;;4998378;28;19925;-91
2021/08/26 06:17:40;;;;;;;;;;;;;;;;;;5001759;28;19925;-89
2021/08/26 06:20:09;;;;;;;;;;;;;;;;;;5002589;28;19936;-90
2021/08/26 06:22:39;;;;;;;;;;;;;;;;;;5001903;28;20421;-90
2021/08/26 06:25:08;;;;;;;;;;;;;;;;;;5001501;28;19932;-89
2021/08/26 06:27:36;;;;;;;;;;;;;;;;;;5001152;28;19925;-90
2021/08/26 06:30:05;;;;;;;;;;;;;;;;;;5003338;28;20443;-87
2021/08/26 06:32:34;;;;;;;;;;;;;;;;;;5002548;28;19926;-89
2021/08/26 06:35:03;;;;;;;;;;;;;;;;;;5002185;28;19925;-88
2021/08/26 06:37:32;;;;;;;;;;;;;;;;;;5001986;28;19925;-89
2021/08/26 06:40:02;;;;;;;;;;;;;;;;;;5002083;28;19929;-88
2021/08/26 06:42:30;;;;;;;;;;;;;;;;;;5001775;28;19925;-89
2021/08/26 06:44:58;;;;;;;;;;;;;;;;;;5002065;28;19936;-90
2021/08/26 06:47:26;;;;;;;;;;;;;;;;;;5001946;28;19925;-90
2021/08/26 06:49:55;;;;;;;;;;;;;;;;;;5001748;28;19925;-88
2021/08/26 06:52:23;;;;;;;;;;;;;;;;;;5001911;28;19925;-88
2021/08/26 06:54:51;;;;;;;;;;;;;;;;;;5002072;28;19932;-89
2021/08/26 06:57:21;;;;;;;;;;;;;;;;;;5001519;28;19936;-88
2021/08/26 06:59:49;;;;;;;;;;;;;;;;;;5001734;28;19940;-87
2021/08/26 07:02:18;;;;;;;;;;;;;;;;;;5002670;28;19948;-88
2021/08/26 07:04:46;;;;;;;;;;;;;;;;;;5002848;28;19932;-91
2021/08/26 07:07:14;;;;;;;;;;;;;;;;;;5000985;28;19929;-89
2021/08/26 07:09:42;;;;;;;;;;;;;;;;;;5001287;28;19936;-91
2021/08/26 07:12:11;;;;;;;;;;;;;;;;;;5001223;28;19925;-88
2021/08/26 07:14:40;;;;;;;;;;;;;;;;;;5001591;28;19929;-91
2021/08/26 07:17:08;;;;;;;;;;;;;;;;;;5002009;28;20086;-89
2021/08/26 07:19:37;;;;;;;;;;;;;;;;;;5001519;28;20300;-88
2021/08/26 07:22:05;;;;;;;;;;;;;;;;;;5001683;28;20298;-87
2021/08/26 07:24:33;;;;;;;;;;;;;;;;;;5000657;28;19932;-90
2021/08/26 07:27:01;;;;;;;;;;;;;;;;;;5000704;28;19925;-90
2021/08/26 07:29:30;;;;;;;;;;;;;;;;;;5017598;28;19933;-91
2021/08/26 07:31:59;;;;;;;;;;;;;;;;;;5001061;28;19925;-91
2021/08/26 07:34:27;;;;;;;;;;;;;;;;;;5016893;28;19929;-90
2021/08/26 07:36:56;;;;;;;;;;;;;;;;;;5017292;28;20224;-91
2021/08/26 07:39:24;;;;;;;;;;;;;;;;;;5017003;28;20348;-91
2021/08/26 07:41:52;;;;;;;;;;;;;;;;;;5002784;28;19934;-92
2021/08/26 07:44:20;;;;;;;;;;;;;;;;;;5017165;28;19925;-91
2021/08/26 07:46:48;;;;;;;;;;;;;;;;;;5017801;28;19936;-92
2021/08/26 07:49:19;;;;;;;;;;;;;;;;;;5016689;28;19925;-91
2021/08/26 07:51:47;;;;;;;;;;;;;;;;;;5000315;28;19932;-90
2021/08/26 07:54:15;;;;;;;;;;;;;;;;;;5001926;28;19929;-91
2021/08/26 07:56:44;;;;;;;;;;;;;;;;;;5020581;28;19932;-92
2021/08/26 07:59:12;;;;;;;;;;;;;;;;;;5018546;28;20308;-88
2021/08/26 08:01:40;;;;;;;;;;;;;;;;;;5001151;28;19929;-90
2021/08/26 08:04:09;;;;;;;;;;;;;;;;;;5000096;28;19925;-94
2021/08/26 08:06:38;;;;;;;;;;;;;;;;;;5001427;28;19932;-91
2021/08/26 08:09:07;;;;;;;;;;;;;;;;;;5016900;28;20328;-89
2021/08/26 08:11:35;;;;;;;;;;;;;;;;;;5016815;28;20031;-93
2021/08/26 08:14:03;;;;;;;;;;;;;;;;;;5000638;28;19926;-92
2021/08/26 08:16:31;;;;;;;;;;;;;;;;;;5000488;28;19933;-92
2021/08/26 08:19:00;;;;;;;;;;;;;;;;;;5000659;28;20316;-89
2021/08/26 08:21:28;;;;;;;;;;;;;;;;;;5000058;28;19936;-88
2021/08/26 08:23:57;;;;;;;;;;;;;;;;;;4998960;28;19925;-91
2021/08/26 08:26:26;;;;;;;;;;;;;;;;;;4999669;28;19932;-91
2021/08/26 08:28:54;;;;;;;;;;;;;;;;;;5000090;28;19948;-90
2021/08/26 08:31:22;;;;;;;;;;;;;;;;;;5000139;28;19925;-90
2021/08/26 08:33:50;;;;;;;;;;;;;;;;;;4999524;28;20416;-90
2021/08/26 08:36:20;;;;;;;;;;;;;;;;;;4999757;28;19925;-90
2021/08/26 08:38:48;;;;;;;;;;;;;;;;;;5005121;28;19929;-88
2021/08/26 08:41:18;;;;;;;;;;;;;;;;;;5000163;28;20420;-87
2021/08/26 08:43:46;;;;;;;;;;;;;;;;;;5000531;28;19925;-90
2021/08/26 08:46:14;;;;;;;;;;;;;;;;;;5013752;28;19925;-87
2021/08/26 08:48:43;;;;;;;;;;;;;;;;;;5002190;28;19925;-89
2021/08/26 08:51:12;;;;;;;;;;;;;;;;;;5010066;28;19935;-89
2021/08/26 08:53:40;;;;;;;;;;;;;;;;;;4999997;28;19936;-90
2021/08/26 08:56:09;;;;;;;;;;;;;;;;;;4996027;28;20393;-89
2021/08/26 08:58:39;;;;;;;;;;;;;;;;;;4999343;28;19937;-89
2021/08/26 09:01:07;;;;;;;;;;;;;;;;;;4998849;28;19925;-88
2021/08/26 09:03:36;;;;;;;;;;;;;;;;;;4999957;28;19932;-89
2021/08/26 09:06:04;;;;;;;;;;;;;;;;;;5000021;28;19940;-87
2021/08/26 09:08:33;;;;;;;;;;;;;;;;;;5009054;28;19925;-86
2021/08/26 09:11:11;;;;;;;;;;;;;;;;;;4998785;28;19929;-87
2021/08/26 09:13:41;;;;;;;;;;;;;;;;;;4997616;28;20289;-87
2021/08/26 09:16:10;;;;;;;;;;;;;;;;;;5002886;28;19925;-90
2021/08/26 09:18:38;;;;;;;;;;;;;;;;;;4998431;28;19925;-89
2021/08/26 09:21:07;;;;;;;;;;;;;;;;;;5003484;28;19932;-90
2021/08/26 09:23:51;;;;;;;;;;;;;;;;;;4998602;28;20390;-89
2021/08/26 09:26:21;;;;;;;;;;;;;;;;;;5014264;28;20702;-87
2021/08/26 09:28:51;;;;;;;;;;;;;;;;;;4999753;28;20324;-91
2021/08/26 09:31:20;;;;;;;;;;;;;;;;;;4992943;28;19933;-90
2021/08/26 09:33:50;;;;;;;;;;;;;;;;;;5008395;28;19934;-88
2021/08/26 09:36:19;;;;;;;;;;;;;;;;;;4995943;28;19932;-89
2021/08/26 09:38:51;;;;;;;;;;;;;;;;;;4994867;28;19929;-88
2021/08/26 09:41:34;;;;;;;;;;;;;;;;;;4994724;28;20324;-89
2021/08/26 09:44:04;;;;;;;;;;;;;;;;;;4997540;28;19932;-89
2021/08/26 09:46:33;;;;;;;;;;;;;;;;;;5002352;28;19928;-88
2021/08/26 09:49:03;;;;;;;;;;;;;;;;;;5020400;28;19941;-91
2021/08/26 09:51:31;;;;;;;;;;;;;;;;;;5000267;28;19925;-90
2021/08/26 09:53:59;;;;;;;;;;;;;;;;;;5001912;28;20416;-87
2021/08/26 09:56:38;;;;;;;;;;;;;;;;;;4997788;28;19925;-89
2021/08/26 09:59:07;;;;;;;;;;;;;;;;;;5003094;28;19925;-87
2021/08/26 10:01:39;;;;;;;;;;;;;;;;;;4998541;28;19940;-89
2021/08/26 10:04:27;;;;;;;;;;;;;;;;;;5003273;28;19926;-88
2021/08/26 10:06:55;;;;;;;;;;;;;;;;;;5010473;28;19932;-89
2021/08/26 10:09:24;;;;;;;;;;;;;;;;;;4996806;28;19933;-86
2021/08/26 10:11:52;;;;;;;;;;;;;;;;;;4996208;28;19932;-88
2021/08/26 10:14:21;;;;;;;;;;;;;;;;;;4996379;28;19933;-86
2021/08/26 10:16:49;;;;;;;;;;;;;;;;;;4997569;28;19936;-87
2021/08/26 10:19:18;;;;;;;;;;;;;;;;;;4997566;28;19925;-87
2021/08/26 10:21:46;;;;;;;;;;;;;;;;;;4998976;28;19925;-88
2021/08/26 10:24:14;;;;;;;;;;;;;;;;;;4995081;28;20408;-87
2021/08/26 10:26:43;;;;;;;;;;;;;;;;;;5029459;28;19926;-87
2021/08/26 10:29:12;;;;;;;;;;;;;;;;;;4998943;28;19936;-88
2021/08/26 10:31:41;;;;;;;;;;;;;;;;;;5002538;28;19925;-87
2021/08/26 10:34:14;;;;;;;;;;;;;;;;;;4995954;28;20411;-86
2021/08/26 10:36:46;;;;;;;;;;;;;;;;;;5004726;28;19932;-86
2021/08/26 10:39:30;;;;;;;;;;;;;;;;;;4997866;28;19940;-87
2021/08/26 10:42:15;;;;;;;;;;;;;;;;;;5016881;28;19932;-85
2021/08/26 10:45:00;;;;;;;;;;;;;;;;;;4992883;28;19925;-85
2021/08/26 10:47:43;;;;;;;;;;;;;;;;;;4998625;28;19925;-85
2021/08/26 10:50:16;;;;;;;;;;;;;;;;;;4994410;28;19929;-85
2021/08/26 10:52:53;;;;;;;;;;;;;;;;;;5000244;28;19936;-84
2021/08/26 10:55:27;;;;;;;;;;;;;;;;;;5001768;28;19925;-86
2021/08/26 10:57:55;;;;;;;;;;;;;;;;;;4998516;28;19948;-87
2021/08/26 11:00:40;;;;;;;;;;;;;;;;;;4994242;28;20375;-86
2021/08/26 11:03:08;;;;;;;;;;;;;;;;;;4996126;28;19937;-87
2021/08/26 11:05:50;;;;;;;;;;;;;;;;;;5021379;28;19933;-87
2021/08/26 11:08:26;;;;;;;;;;;;;;;;;;5015576;28;20544;-90
2021/08/26 11:10:54;;;;;;;;;;;;;;;;;;4998255;28;20320;-88
2021/08/26 11:13:29;;;;;;;;;;;;;;;;;;5015946;28;19932;-87
2021/08/26 11:15:57;;;;;;;;;;;;;;;;;;4999557;28;19933;-85
2021/08/26 11:18:28;;;;;;;;;;;;;;;;;;5003588;28;19933;-86
2021/08/26 11:20:58;;;;;;;;;;;;;;;;;;5016221;28;19929;-88
2021/08/26 11:23:45;;;;;;;;;;;;;;;;;;5009615;28;19928;-85
2021/08/26 11:26:32;;;;;;;;;;;;;;;;;;5019056;28;20312;-86
2021/08/26 11:29:12;;;;;;;;;;;;;;;;;;4994913;28;19925;-85
2021/08/26 11:31:41;;;;;;;;;;;;;;;;;;4996341;28;19925;-88
2021/08/26 11:34:09;;;;;;;;;;;;;;;;;;5006877;28;19933;-89
2021/08/26 11:36:39;;;;;;;;;;;;;;;;;;5024601;28;20296;-88
2021/08/26 11:39:12;;;;;;;;;;;;;;;;;;5005554;28;19928;-89
2021/08/26 11:41:41;;;;;;;;;;;;;;;;;;5006071;28;19925;-87
2021/08/26 11:44:12;;;;;;;;;;;;;;;;;;5003855;28;20389;-87
2021/08/26 11:46:41;;;;;;;;;;;;;;;;;;4998130;28;20321;-88
2021/08/26 11:49:09;;;;;;;;;;;;;;;;;;5014498;28;19926;-89
2021/08/26 11:51:38;;;;;;;;;;;;;;;;;;4998726;28;19925;-90
2021/08/26 11:54:13;;;;;;;;;;;;;;;;;;5016638;28;19948;-90
2021/08/26 11:56:43;;;;;;;;;;;;;;;;;;4994821;28;20301;-91
2021/08/26 11:59:22;;;;;;;;;;;;;;;;;;4995402;28;20393;-89
2021/08/26 12:01:50;;;;;;;;;;;;;;;;;;5004938;28;19925;-88
2021/08/26 12:04:19;;;;;;;;;;;;;;;;;;4997820;28;20425;-88
2021/08/26 12:06:50;;;;;;;;;;;;;;;;;;4996999;28;19940;-88
2021/08/26 12:09:18;;;;;;;;;;;;;;;;;;4999159;28;20629;-88
2021/08/26 12:11:46;;;;;;;;;;;;;;;;;;5002653;28;19925;-87
2021/08/26 12:14:14;;;;;;;;;;;;;;;;;;5001794;28;19929;-88
2021/08/26 12:16:43;;;;;;;;;;;;;;;;;;5008674;28;20316;-88
2021/08/26 12:19:11;;;;;;;;;;;;;;;;;;4998187;28;19929;-87
2021/08/26 12:21:39;;;;;;;;;;;;;;;;;;4998602;28;19925;-88
2021/08/26 12:24:10;;;;;;;;;;;;;;;;;;4994548;28;19926;-88
2021/08/26 12:26:39;;;;;;;;;;;;;;;;;;4998292;28;19925;-87
2021/08/26 12:29:07;;;;;;;;;;;;;;;;;;5015339;28;19933;-89
2021/08/26 12:31:38;;;;;;;;;;;;;;;;;;4997209;28;19929;-85
2021/08/26 12:34:08;;;;;;;;;;;;;;;;;;4997589;28;19925;-88
2021/08/26 12:36:37;;;;;;;;;;;;;;;;;;4998135;28;19933;-87
2021/08/26 12:39:23;;;;;;;;;;;;;;;;;;4996583;28;19926;-87
2021/08/26 12:42:04;;;;;;;;;;;;;;;;;;5018103;28;19932;-88
2021/08/26 12:44:32;;;;;;;;;;;;;;;;;;5013590;28;19948;-86
2021/08/26 12:47:02;;;;;;;;;;;;;;;;;;5005011;28;20400;-84
2021/08/26 12:49:40;;;;;;;;;;;;;;;;;;5014778;28;19925;-84
2021/08/26 12:52:08;;;;;;;;;;;;;;;;;;5014395;28;19926;-90
2021/08/26 12:54:41;;;;;;;;;;;;;;;;;;4996750;28;19933;-86
2021/08/26 12:57:18;;;;;;;;;;;;;;;;;;4995289;28;20312;-86
2021/08/26 12:59:47;;;;;;;;;;;;;;;;;;5001709;28;20334;-86
2021/08/26 13:02:15;;;;;;;;;;;;;;;;;;5001595;28;19929;-87
2021/08/26 13:04:43;;;;;;;;;;;;;;;;;;5017215;28;19925;-88
2021/08/26 13:07:19;;;;;;;;;;;;;;;;;;4989520;28;19928;-88
2021/08/26 13:09:56;;;;;;;;;;;;;;;;;;4994208;28;19925;-88
2021/08/26 13:12:24;;;;;;;;;;;;;;;;;;5021492;28;19925;-88
2021/08/26 13:14:53;;;;;;;;;;;;;;;;;;5009717;28;20369;-85
2021/08/26 13:17:21;;;;;;;;;;;;;;;;;;4995368;28;20148;-86
2021/08/26 13:19:50;;;;;;;;;;;;;;;;;;5015377;28;19926;-86
2021/08/26 13:22:18;;;;;;;;;;;;;;;;;;4992624;28;20336;-87
2021/08/26 13:24:47;;;;;;;;;;;;;;;;;;5017691;28;19936;-86
2021/08/26 13:27:17;;;;;;;;;;;;;;;;;;4992717;28;19932;-85
2021/08/26 13:29:45;;;;;;;;;;;;;;;;;;5001656;28;19928;-86
2021/08/26 13:32:14;;;;;;;;;;;;;;;;;;5001437;28;19931;-86
2021/08/26 13:34:42;;;;;;;;;;;;;;;;;;4996736;28;19925;-84
2021/08/26 13:37:10;;;;;;;;;;;;;;;;;;4992037;28;19929;-85
2021/08/26 13:39:38;;;;;;;;;;;;;;;;;;5011613;28;19927;-90
2021/08/26 13:42:06;;;;;;;;;;;;;;;;;;5016281;28;19924;-85
2021/08/26 13:44:38;;;;;;;;;;;;;;;;;;5019773;28;19929;-89
2021/08/26 13:47:10;;;;;;;;;;;;;;;;;;5031109;28;20008;-88
2021/08/26 13:49:40;;;;;;;;;;;;;;;;;;5053201;28;19921;-88
2021/08/26 13:52:08;;;;;;;;;;;;;;;;;;5043539;28;19935;-85
2021/08/26 13:54:36;;;;;;;;;;;;;;;;;;4996757;28;20321;-86
2021/08/26 13:57:04;;;;;;;;;;;;;;;;;;5007164;28;19925;-87
2021/08/26 13:59:33;;;;;;;;;;;;;;;;;;5002148;28;19934;-86
2021/08/26 14:02:02;;;;;;;;;;;;;;;;;;5015716;28;19925;-85
2021/08/26 14:04:31;;;;;;;;;;;;;;;;;;5032891;28;19933;-89
2021/08/26 14:07:00;;;;;;;;;;;;;;;;;;5035027;28;19916;-86
2021/08/26 14:09:28;;;;;;;;;;;;;;;;;;5020889;28;19925;-87
2021/08/26 14:11:56;;;;;;;;;;;;;;;;;;5014547;28;19925;-86
2021/08/26 14:14:24;;;;;;;;;;;;;;;;;;5034190;28;19925;-86
2021/08/26 14:16:53;;;;;;;;;;;;;;;;;;5008052;28;20393;-87
2021/08/26 14:19:22;;;;;;;;;;;;;;;;;;5010616;28;20407;-86
2021/08/26 14:21:50;;;;;;;;;;;;;;;;;;5012655;28;19936;-86
2021/08/26 14:24:18;;;;;;;;;;;;;;;;;;5001856;28;20345;-88
2021/08/26 14:26:47;;;;;;;;;;;;;;;;;;5003034;28;19925;-85
2021/08/26 14:29:15;;;;;;;;;;;;;;;;;;5010010;28;19948;-86
2021/08/26 14:31:43;;;;;;;;;;;;;;;;;;5004188;28;19932;-86
2021/08/26 14:34:11;;;;;;;;;;;;;;;;;;4999476;28;19925;-87
2021/08/26 14:36:40;;;;;;;;;;;;;;;;;;4995939;28;20376;-83
2021/08/26 14:39:08;;;;;;;;;;;;;;;;;;5002518;28;19933;-84
2021/08/26 14:41:36;;;;;;;;;;;;;;;;;;5019947;28;20392;-84
2021/08/26 14:44:05;;;;;;;;;;;;;;;;;;5004084;28;19925;-87
2021/08/26 14:46:33;;;;;;;;;;;;;;;;;;5012043;28;19925;-87
2021/08/26 14:49:01;;;;;;;;;;;;;;;;;;5014553;28;19925;-83
2021/08/26 14:51:32;;;;;;;;;;;;;;;;;;5034002;28;20285;-85
2021/08/26 14:54:01;;;;;;;;;;;;;;;;;;4996173;28;19925;-85
2021/08/26 14:56:30;;;;;;;;;;;;;;;;;;5017064;28;19937;-86
2021/08/26 14:58:58;;;;;;;;;;;;;;;;;;5014131;28;19929;-86
2021/08/26 15:01:26;;;;;;;;;;;;;;;;;;5001506;28;19932;-86
2021/08/26 15:03:55;;;;;;;;;;;;;;;;;;4991016;28;19926;-84
2021/08/26 15:06:23;;;;;;;;;;;;;;;;;;5007971;28;19929;-84
2021/08/26 15:08:51;;;;;;;;;;;;;;;;;;4997328;28;19925;-85
2021/08/26 15:11:21;;;;;;;;;;;;;;;;;;4998963;28;20073;-86
2021/08/26 15:13:49;;;;;;;;;;;;;;;;;;5017997;28;19944;-87
2021/08/26 15:16:17;;;;;;;;;;;;;;;;;;5010771;28;19944;-86
2021/08/26 15:18:45;;;;;;;;;;;;;;;;;;5033088;28;19933;-85
2021/08/26 15:21:13;;;;;;;;;;;;;;;;;;5000862;28;19925;-87
2021/08/26 15:23:41;;;;;;;;;;;;;;;;;;5016016;28;19929;-85
2021/08/26 15:26:09;;;;;;;;;;;;;;;;;;4997784;28;19959;-86
2021/08/26 15:28:39;;;;;;;;;;;;;;;;;;5011212;28;19933;-88
2021/08/26 15:31:07;;;;;;;;;;;;;;;;;;4995122;28;20183;-85
2021/08/26 15:33:36;;;;;;;;;;;;;;;;;;5012462;28;20415;-88
2021/08/26 15:36:05;;;;;;;;;;;;;;;;;;4997694;28;19925;-89
2021/08/26 15:38:33;;;;;;;;;;;;;;;;;;5019781;28;19933;-86
2021/08/26 15:41:01;;;;;;;;;;;;;;;;;;5011936;28;20436;-87
2021/08/26 15:43:29;;;;;;;;;;;;;;;;;;4993458;28;20424;-86
2021/08/26 15:45:59;;;;;;;;;;;;;;;;;;4998548;28;19929;-87
2021/08/26 15:48:27;;;;;;;;;;;;;;;;;;5002513;28;19931;-87
2021/08/26 15:50:55;;;;;;;;;;;;;;;;;;5001923;28;19929;-90
2021/08/26 15:53:29;;;;;;;;;;;;;;;;;;5014469;28;19932;-87
2021/08/26 15:56:11;;;;;;;;;;;;;;;;;;5004170;28;19925;-88
2021/08/26 15:58:49;;;;;;;;;;;;;;;;;;5004163;28;19925;-88
2021/08/26 16:01:30;;;;;;;;;;;;;;;;;;4995361;28;19925;-85
2021/08/26 16:04:04;;;;;;;;;;;;;;;;;;4990536;28;20309;-87
2021/08/26 16:06:47;;;;;;;;;;;;;;;;;;4990339;28;19925;-88
2021/08/26 16:09:15;;;;;;;;;;;;;;;;;;5006016;28;20314;-87
2021/08/26 16:11:44;;;;;;;;;;;;;;;;;;5001793;28;19925;-85
2021/08/26 16:14:26;;;;;;;;;;;;;;;;;;5000374;28;19925;-84
2021/08/26 16:16:56;;;;;;;;;;;;;;;;;;4992302;28;19932;-83
2021/08/26 16:19:24;;;;;;;;;;;;;;;;;;5008995;28;19925;-85
2021/08/26 16:25:35;;;;;;;;;;;;;;;;;;5000544;28;19924;-86
2021/08/26 16:28:09;;;;;;;;;;;;;;;;;;4993941;28;19925;-88
2021/08/26 16:30:41;;;;;;;;;;;;;;;;;;4999346;28;20926;-85
2021/08/26 16:33:16;;;;;;;;;;;;;;;;;;4995836;28;19932;-84
2021/08/26 16:40:04;;;;;;;;;;;;;;;;;;5001694;28;19928;-87
2021/08/26 16:42:33;;;;;;;;;;;;;;;;;;4986002;28;19925;-86
2021/08/26 16:45:06;;;;;;;;;;;;;;;;;;4998494;28;19925;-87
2021/08/26 16:47:37;;;;;;;;;;;;;;;;;;5016172;28;20270;-86
2021/08/26 16:50:17;;;;;;;;;;;;;;;;;;4994939;28;19925;-88
2021/08/26 16:52:46;;;;;;;;;;;;;;;;;;5003897;28;19932;-88
2021/08/26 16:55:14;;;;;;;;;;;;;;;;;;4999312;28;19925;-86
2021/08/26 16:57:43;;;;;;;;;;;;;;;;;;4997939;28;19925;-88
2021/08/26 17:00:16;;;;;;;;;;;;;;;;;;4999295;28;20282;-87
2021/08/26 17:02:44;;;;;;;;;;;;;;;;;;5002129;28;20281;-87
2021/08/26 17:05:13;;;;;;;;;;;;;;;;;;5000097;28;19933;-88
2021/08/26 17:07:43;;;;;;;;;;;;;;;;;;4999660;28;19946;-88
2021/08/26 17:10:12;;;;;;;;;;;;;;;;;;5006986;28;19932;-87
2021/08/26 17:12:40;;;;;;;;;;;;;;;;;;4998515;28;20280;-88
2021/08/26 17:15:09;;;;;;;;;;;;;;;;;;5022343;28;19932;-88
2021/08/26 17:17:38;;;;;;;;;;;;;;;;;;4996058;28;20293;-88
2021/08/26 17:20:08;;;;;;;;;;;;;;;;;;5016170;28;20397;-86